Time;durP1;ratioP1;P1;durP2;ratioP2;P2;SDS_P1;SDS_P2;PMS_P1;PMS_P2;Temp;Humidity;BMP_temperature;BMP_pressure;BME280_temperature;BME280_humidity;BME280_pressure;Samples;Min_cycle;Max_cycle;Signal;HPM_P1;HPM_P2
2021/12/25 00:02:09;;;;;;;35.67;23.92;;;4.00;77.70;;;;;;5069198;28;20024;-58
2021/12/25 00:04:35;;;;;;;25.20;19.27;;;4.00;77.50;;;;;;5070802;28;20434;-58
2021/12/25 00:07:01;;;;;;;26.65;19.48;;;4.10;77.30;;;;;;5065123;28;20024;-58
2021/12/25 00:09:27;;;;;;;26.00;18.80;;;4.10;77.20;;;;;;5066697;28;21234;-59
2021/12/25 00:11:53;;;;;;;36.22;23.35;;;4.10;77.20;;;;;;5072118;28;20032;-56
2021/12/25 00:14:20;;;;;;;27.23;20.58;;;4.10;77.20;;;;;;5064061;28;20025;-56
2021/12/25 00:16:46;;;;;;;29.67;21.45;;;4.00;77.20;;;;;;5075282;28;20032;-57
2021/12/25 00:19:12;;;;;;;24.60;18.63;;;4.10;77.30;;;;;;5073919;28;20024;-58
2021/12/25 00:21:38;;;;;;;22.27;16.77;;;4.10;77.40;;;;;;5067875;28;20013;-55
2021/12/25 00:24:05;;;;;;;29.63;21.92;;;4.10;77.50;;;;;;5074870;28;20041;-56
2021/12/25 00:29:22;;;;;;;25.77;18.88;;;4.20;77.60;;;;;;5068165;28;20063;-58
2021/12/25 00:31:56;;;;;;;24.75;18.38;;;4.20;77.50;;;;;;5069838;28;20126;-57
2021/12/25 00:34:23;;;;;;;22.45;17.10;;;4.20;77.60;;;;;;5070592;28;20035;-58
2021/12/25 00:36:50;;;;;;;21.27;17.50;;;4.30;77.60;;;;;;5066834;28;20115;-57
2021/12/25 00:39:16;;;;;;;20.27;15.40;;;4.30;78.30;;;;;;5070912;28;20085;-58
2021/12/25 00:41:41;;;;;;;23.75;17.40;;;4.30;77.70;;;;;;5065301;28;20024;-55
2021/12/25 00:44:08;;;;;;;20.38;15.50;;;4.30;77.70;;;;;;5071529;28;20039;-54
2021/12/25 00:46:33;;;;;;;20.23;15.80;;;4.30;77.60;;;;;;5080234;28;20020;-58
2021/12/25 00:48:59;;;;;;;19.67;14.77;;;4.30;77.70;;;;;;5074450;28;20032;-58
2021/12/25 00:51:24;;;;;;;21.83;15.88;;;4.30;77.70;;;;;;5078154;28;20349;-58
2021/12/25 00:53:50;;;;;;;20.38;15.07;;;4.30;77.70;;;;;;5084817;28;20033;-58
2021/12/25 00:56:16;;;;;;;17.08;13.55;;;4.40;77.90;;;;;;5077650;28;20020;-58
2021/12/25 00:58:42;;;;;;;19.17;15.52;;;4.40;78.00;;;;;;5081721;28;20036;-58
2021/12/25 01:01:08;;;;;;;18.85;14.73;;;4.40;78.00;;;;;;5082203;28;20028;-55
2021/12/25 01:03:34;;;;;;;20.63;14.73;;;4.40;78.20;;;;;;5077934;28;20028;-54
2021/12/25 01:05:59;;;;;;;21.42;15.40;;;4.40;78.20;;;;;;5073740;28;20040;-55
2021/12/25 01:08:25;;;;;;;18.00;14.10;;;4.40;78.30;;;;;;5083266;28;20036;-55
2021/12/25 01:10:51;;;;;;;20.15;16.70;;;4.40;78.30;;;;;;5085570;28;20020;-55
2021/12/25 01:13:30;;;;;;;20.17;15.52;;;4.40;79.00;;;;;;5085722;28;20467;-56
2021/12/25 01:19:04;;;;;;;18.85;14.15;;;4.50;78.60;;;;;;5082337;28;20020;-55
2021/12/25 01:37:35;;;;;;;23.33;18.77;;;4.60;78.40;;;;;;5083558;28;20036;-56
2021/12/25 01:48:15;;;;;;;19.10;14.60;;;4.60;78.80;;;;;;5078426;28;20051;-56
2021/12/25 01:50:41;;;;;;;23.48;17.15;;;4.50;78.80;;;;;;5082133;28;20028;-53
2021/12/25 01:53:07;;;;;;;20.77;16.30;;;4.50;79.00;;;;;;5087309;28;20073;-54
2021/12/25 01:55:33;;;;;;;19.63;16.05;;;4.50;79.20;;;;;;5083330;28;20469;-56
2021/12/25 01:58:00;;;;;;;25.27;18.10;;;4.50;79.40;;;;;;5085105;28;20044;-56
2021/12/25 02:00:52;;;;;;;18.73;14.98;;;4.60;79.60;;;;;;5084675;28;20096;-56
2021/12/25 02:03:20;;;;;;;22.57;17.00;;;4.60;79.50;;;;;;5082691;28;20028;-56
2021/12/25 02:05:46;;;;;;;21.38;16.60;;;4.60;79.60;;;;;;5085766;28;21441;-54
2021/12/25 02:08:12;;;;;;;24.02;17.27;;;4.60;79.80;;;;;;5077396;28;20020;-56
2021/12/25 02:10:38;;;;;;;22.83;17.52;;;4.60;79.80;;;;;;5080545;28;20468;-56
2021/12/25 02:13:04;;;;;;;22.80;17.25;;;4.70;79.80;;;;;;5084286;28;20029;-55
2021/12/25 02:15:32;;;;;;;22.58;17.15;;;4.70;79.80;;;;;;5082640;28;20074;-55
2021/12/25 02:20:34;;;;;;;24.67;17.50;;;4.80;79.60;;;;;;5082418;28;20428;-55
2021/12/25 02:23:03;;;;;;;20.50;15.57;;;4.80;79.60;;;;;;5083023;28;20093;-56
2021/12/25 02:25:33;;;;;;;19.58;14.52;;;4.90;80.00;;;;;;5088034;28;20028;-55
2021/12/25 02:28:02;;;;;;;21.95;16.50;;;4.90;79.40;;;;;;5081555;28;20360;-56
2021/12/25 02:30:28;;;;;;;18.52;14.57;;;4.90;79.40;;;;;;5084755;28;20776;-55
2021/12/25 02:32:54;;;;;;;20.58;15.48;;;4.90;79.50;;;;;;5081312;28;20036;-56
2021/12/25 02:35:20;;;;;;;19.67;15.77;;;4.90;79.50;;;;;;5083434;28;20035;-56
2021/12/25 02:37:46;;;;;;;21.33;15.38;;;4.90;79.60;;;;;;5080932;28;20020;-54
2021/12/25 02:40:14;;;;;;;17.13;13.13;;;4.90;79.60;;;;;;5079966;28;20035;-56
2021/12/25 02:42:40;;;;;;;16.48;12.52;;;4.90;79.70;;;;;;5088748;28;20024;-52
2021/12/25 02:45:14;;;;;;;15.13;13.05;;;4.90;79.70;;;;;;5084783;28;20039;-57
2021/12/25 02:47:42;;;;;;;15.10;12.70;;;4.90;79.70;;;;;;5085701;28;20051;-56
2021/12/25 02:50:09;;;;;;;16.35;12.65;;;4.90;79.70;;;;;;5081040;28;20397;-55
2021/12/25 02:52:35;;;;;;;15.73;12.80;;;4.90;79.70;;;;;;5077799;28;20052;-55
2021/12/25 02:55:01;;;;;;;15.13;12.02;;;4.90;79.70;;;;;;5078266;28;20016;-54
2021/12/25 02:57:27;;;;;;;17.33;12.95;;;4.90;79.60;;;;;;5080898;28;20089;-57
2021/12/25 02:59:52;;;;;;;14.77;12.30;;;4.90;79.70;;;;;;5083784;28;20028;-56
2021/12/25 03:02:18;;;;;;;16.85;13.27;;;4.90;79.70;;;;;;5080944;28;20032;-55
2021/12/25 03:04:47;;;;;;;15.38;12.18;;;5.00;79.80;;;;;;5088165;28;20020;-55
2021/12/25 03:07:12;;;;;;;17.45;13.10;;;5.00;79.80;;;;;;5086765;28;20062;-56
2021/12/25 03:09:40;;;;;;;15.95;13.23;;;5.00;79.70;;;;;;5077168;28;20055;-57
2021/12/25 03:12:08;;;;;;;15.52;11.90;;;5.00;79.70;;;;;;5075249;28;20021;-56
2021/12/25 03:17:39;;;;;;;13.30;11.00;;;5.10;79.60;;;;;;5066472;28;20118;-56
2021/12/25 03:20:08;;;;;;;16.10;12.95;;;5.10;79.70;;;;;;5083003;28;20130;-54
2021/12/25 03:22:34;;;;;;;16.60;12.68;;;5.10;79.60;;;;;;5079376;28;20086;-56
2021/12/25 03:25:00;;;;;;;16.60;12.30;;;5.10;79.60;;;;;;5087791;28;20107;-55
2021/12/25 03:27:26;;;;;;;15.68;12.02;;;5.10;79.70;;;;;;5082318;28;20120;-57
2021/12/25 03:29:52;;;;;;;16.83;13.07;;;5.10;79.70;;;;;;5081536;28;20044;-54
2021/12/25 03:32:18;;;;;;;16.70;12.90;;;5.10;79.60;;;;;;5079577;28;20073;-55
2021/12/25 03:34:44;;;;;;;18.15;13.85;;;5.10;79.50;;;;;;5081573;28;20054;-56
2021/12/25 03:37:10;;;;;;;17.80;13.32;;;5.20;79.50;;;;;;5084488;28;20031;-54
2021/12/25 03:39:35;;;;;;;18.58;14.60;;;5.20;79.50;;;;;;5084474;28;20024;-57
2021/12/25 03:42:02;;;;;;;19.20;13.73;;;5.20;79.50;;;;;;5082610;28;20024;-56
2021/12/25 03:44:28;;;;;;;17.85;14.07;;;5.20;79.60;;;;;;5078009;28;20027;-57
2021/12/25 03:46:59;;;;;;;17.42;12.73;;;5.20;79.50;;;;;;5083306;28;20407;-57
2021/12/25 03:53:04;;;;;;;17.17;12.95;;;5.30;79.50;;;;;;5084254;28;20063;-57
2021/12/25 03:57:52;;;;;;;17.63;14.25;;;5.30;79.40;;;;;;5080705;28;20027;-57
2021/12/25 04:00:27;;;;;;;18.42;13.02;;;5.40;79.20;;;;;;5085026;28;20132;-56
2021/12/25 04:02:56;;;;;;;16.20;12.93;;;5.40;79.20;;;;;;5079250;28;20028;-57
2021/12/25 04:05:27;;;;;;;17.40;13.45;;;5.40;79.10;;;;;;5080143;28;20028;-53
2021/12/25 04:08:03;;;;;;;14.82;12.35;;;5.40;79.20;;;;;;5078134;28;20036;-55
2021/12/25 04:10:36;;;;;;;17.10;13.02;;;5.40;79.10;;;;;;5080089;28;20537;-57
2021/12/25 04:13:04;;;;;;;16.33;12.23;;;5.40;79.10;;;;;;5084926;28;20027;-57
2021/12/25 04:15:30;;;;;;;16.17;12.65;;;5.50;79.10;;;;;;5085833;28;20020;-57
2021/12/25 04:17:56;;;;;;;16.48;13.10;;;5.50;79.00;;;;;;5085103;28;20027;-55
2021/12/25 04:20:22;;;;;;;15.15;11.70;;;5.50;79.10;;;;;;5083206;28;20032;-53
2021/12/25 04:22:56;;;;;;;13.52;11.43;;;5.50;79.00;;;;;;5079264;28;20041;-54
2021/12/25 04:25:27;;;;;;;15.32;11.57;;;5.50;78.90;;;;;;5084311;28;20032;-57
2021/12/25 04:27:53;;;;;;;17.13;11.88;;;5.50;79.10;;;;;;5079212;28;20090;-57
2021/12/25 04:30:33;;;;;;;13.93;10.15;;;5.60;79.10;;;;;;5083019;28;20408;-56
2021/12/25 05:03:10;;;;;;;12.73;10.55;;;6.10;77.60;;;;;;5081191;28;20827;-57
2021/12/25 05:05:36;;;;;;;13.57;11.27;;;6.20;77.50;;;;;;5081493;28;20033;-56
2021/12/25 05:08:02;;;;;;;12.07;9.98;;;6.20;77.40;;;;;;5081649;28;20059;-56
2021/12/25 05:10:27;;;;;;;13.55;9.52;;;6.20;77.30;;;;;;5082106;28;20063;-55
2021/12/25 05:12:53;;;;;;;11.15;9.35;;;6.20;77.30;;;;;;5085080;28;20024;-54
2021/12/25 05:15:19;;;;;;;14.68;10.68;;;6.30;77.10;;;;;;5084998;28;20028;-56
2021/12/25 05:17:44;;;;;;;12.98;10.07;;;6.30;77.10;;;;;;5082416;28;20028;-57
2021/12/25 05:20:10;;;;;;;13.07;10.30;;;6.30;77.20;;;;;;5079156;28;20026;-54
2021/12/25 05:22:36;;;;;;;13.48;9.90;;;6.30;77.00;;;;;;5080793;28;20170;-57
2021/12/25 05:25:02;;;;;;;12.75;10.30;;;6.40;76.90;;;;;;5081604;28;20099;-56
2021/12/25 05:27:28;;;;;;;14.38;11.02;;;6.40;76.80;;;;;;5080302;28;20490;-58
2021/12/25 05:29:54;;;;;;;13.73;10.10;;;6.30;76.80;;;;;;5077317;28;20064;-56
2021/12/25 05:32:20;;;;;;;13.18;9.65;;;6.30;76.90;;;;;;5075829;28;20032;-56
2021/12/25 05:34:46;;;;;;;13.68;10.07;;;6.40;76.70;;;;;;5083240;28;20476;-56
2021/12/25 05:37:12;;;;;;;11.63;9.48;;;6.40;76.70;;;;;;5079993;28;20024;-57
2021/12/25 05:39:39;;;;;;;13.77;10.93;;;6.40;76.70;;;;;;5079348;28;20028;-57
2021/12/25 05:42:05;;;;;;;14.55;10.32;;;6.30;76.70;;;;;;5081132;28;20028;-57
2021/12/25 05:44:31;;;;;;;15.10;11.32;;;6.40;76.70;;;;;;5080259;28;20399;-57
2021/12/25 05:46:56;;;;;;;14.25;10.88;;;6.40;76.80;;;;;;5077212;28;20094;-54
2021/12/25 05:49:24;;;;;;;12.88;9.98;;;6.40;76.70;;;;;;5082860;28;20024;-56
2021/12/25 05:51:50;;;;;;;13.55;10.07;;;6.40;76.70;;;;;;5080957;28;20020;-56
2021/12/25 05:54:16;;;;;;;12.70;10.65;;;6.40;76.70;;;;;;5079947;28;20047;-54
2021/12/25 05:56:41;;;;;;;14.13;10.68;;;6.40;76.60;;;;;;5083254;28;20440;-57
2021/12/25 05:59:07;;;;;;;15.10;10.80;;;6.50;76.50;;;;;;5085185;28;20025;-56
2021/12/25 06:01:33;;;;;;;13.98;9.82;;;6.50;76.50;;;;;;5087449;28;20035;-57
2021/12/25 06:03:58;;;;;;;15.60;11.10;;;6.50;76.30;;;;;;5085929;28;20432;-53
2021/12/25 06:06:24;;;;;;;12.05;9.95;;;6.60;76.30;;;;;;5083267;28;20031;-57
2021/12/25 06:08:50;;;;;;;13.77;10.23;;;6.60;76.30;;;;;;5083423;28;20107;-57
2021/12/25 06:11:17;;;;;;;11.98;9.38;;;6.60;76.20;;;;;;5085869;28;20128;-57
2021/12/25 06:13:54;;;;;;;13.70;10.60;;;6.60;76.00;;;;;;5088273;28;20024;-58
2021/12/25 06:16:21;;;;;;;12.65;9.93;;;6.60;76.00;;;;;;5081526;28;20070;-57
2021/12/25 06:18:46;;;;;;;12.10;10.13;;;6.50;76.00;;;;;;5083570;28;20028;-55
2021/12/25 06:21:12;;;;;;;11.63;9.48;;;6.60;76.10;;;;;;5081771;28;20028;-55
2021/12/25 06:23:38;;;;;;;9.98;8.90;;;6.50;76.10;;;;;;5079820;28;20101;-56
2021/12/25 06:26:03;;;;;;;13.02;9.48;;;6.50;76.20;;;;;;5083325;28;20020;-57
2021/12/25 06:28:29;;;;;;;12.20;9.88;;;6.40;76.30;;;;;;5081641;28;20029;-57
2021/12/25 06:30:55;;;;;;;12.73;10.00;;;6.40;76.30;;;;;;5082653;28;20213;-55
2021/12/25 06:33:20;;;;;;;14.02;10.60;;;6.40;76.50;;;;;;5081439;28;20021;-57
2021/12/25 06:35:46;;;;;;;11.80;8.95;;;6.40;76.50;;;;;;5086328;28;20060;-56
2021/12/25 06:38:12;;;;;;;12.40;10.05;;;6.50;76.50;;;;;;5078050;28;20020;-57
2021/12/25 06:40:38;;;;;;;13.60;10.43;;;6.50;76.30;;;;;;5084321;28;20026;-57
2021/12/25 06:43:03;;;;;;;11.95;8.77;;;6.50;76.30;;;;;;5079997;28;20039;-56
2021/12/25 06:45:29;;;;;;;13.38;10.32;;;6.50;76.20;;;;;;5078788;28;20031;-58
2021/12/25 06:47:55;;;;;;;14.00;10.35;;;6.60;76.20;;;;;;5080435;28;20032;-56
2021/12/25 06:50:21;;;;;;;14.95;10.30;;;6.60;76.30;;;;;;5083442;28;20483;-56
2021/12/25 06:52:47;;;;;;;13.38;10.00;;;6.60;76.20;;;;;;5080172;28;20028;-57
2021/12/25 06:55:13;;;;;;;12.65;9.55;;;6.60;76.20;;;;;;5083012;28;20122;-55
2021/12/25 06:57:47;;;;;;;12.43;9.27;;;6.70;76.10;;;;;;5083539;28;20024;-56
2021/12/25 07:00:14;;;;;;;11.60;8.93;;;6.70;76.00;;;;;;5084582;28;20028;-54
2021/12/25 07:02:40;;;;;;;12.55;8.88;;;6.70;76.00;;;;;;5088929;28;20078;-57
2021/12/25 07:05:06;;;;;;;12.63;9.02;;;6.80;75.90;;;;;;5080744;28;20028;-57
2021/12/25 07:07:31;;;;;;;13.38;10.40;;;6.80;75.90;;;;;;5087146;28;20063;-57
2021/12/25 07:09:57;;;;;;;12.63;9.52;;;6.80;75.90;;;;;;5084932;28;20115;-57
2021/12/25 07:12:25;;;;;;;12.48;8.52;;;6.80;75.80;;;;;;5084353;28;20025;-57
2021/12/25 07:14:50;;;;;;;14.75;9.88;;;6.80;75.70;;;;;;5081333;28;20021;-56
2021/12/25 07:17:16;;;;;;;12.90;9.75;;;6.80;75.70;;;;;;5082076;28;20047;-57
2021/12/25 07:19:42;;;;;;;14.98;10.85;;;6.80;75.70;;;;;;5085311;28;20028;-54
2021/12/25 07:22:07;;;;;;;13.20;9.75;;;6.80;75.70;;;;;;5082598;28;20036;-54
2021/12/25 07:24:33;;;;;;;13.18;9.80;;;6.90;75.70;;;;;;5080390;28;20044;-58
2021/12/25 07:27:05;;;;;;;13.73;9.90;;;6.80;75.70;;;;;;5087739;28;20031;-56
2021/12/25 07:29:31;;;;;;;10.15;8.25;;;6.80;75.80;;;;;;5079320;28;20532;-53
2021/12/25 07:31:57;;;;;;;9.85;7.22;;;6.80;75.70;;;;;;5082834;28;20491;-56
2021/12/25 07:34:23;;;;;;;7.60;5.70;;;6.80;75.40;;;;;;5082143;28;20021;-56
2021/12/25 07:36:49;;;;;;;6.30;4.95;;;6.70;75.00;;;;;;5078154;28;20021;-56
2021/12/25 07:39:15;;;;;;;6.43;4.90;;;6.70;74.70;;;;;;5081101;28;20017;-55
2021/12/25 07:41:40;;;;;;;6.35;4.63;;;6.70;74.50;;;;;;5085329;28;20032;-57
2021/12/25 07:44:06;;;;;;;5.88;4.60;;;6.60;74.40;;;;;;5083953;28;20032;-57
2021/12/25 07:46:33;;;;;;;5.78;4.28;;;6.60;74.00;;;;;;5083210;28;20103;-57
2021/12/25 07:48:58;;;;;;;5.38;4.43;;;6.60;73.60;;;;;;5084779;28;20032;-57
2021/12/25 07:51:24;;;;;;;5.07;4.22;;;6.50;73.70;;;;;;5082435;28;20392;-55
2021/12/25 07:53:50;;;;;;;6.50;3.80;;;6.50;73.30;;;;;;5081913;28;20396;-57
2021/12/25 07:56:15;;;;;;;5.15;3.85;;;6.50;72.90;;;;;;5078822;28;20110;-56
2021/12/25 07:58:42;;;;;;;4.40;3.47;;;6.50;72.60;;;;;;5080619;28;20032;-55
2021/12/25 08:01:08;;;;;;;5.38;3.80;;;6.50;72.40;;;;;;5080728;28;20040;-55
2021/12/25 08:03:35;;;;;;;4.38;3.47;;;6.50;72.40;;;;;;5083193;28;20039;-57
2021/12/25 08:06:01;;;;;;;5.28;3.58;;;6.50;72.10;;;;;;5078946;28;20020;-56
2021/12/25 08:08:27;;;;;;;4.18;3.28;;;6.50;72.00;;;;;;5078162;28;20040;-54
2021/12/25 08:10:53;;;;;;;4.15;3.17;;;6.50;72.00;;;;;;5082550;28;20481;-56
2021/12/25 08:13:18;;;;;;;3.60;3.20;;;6.50;71.90;;;;;;5081689;28;20020;-56
2021/12/25 08:15:44;;;;;;;4.13;3.22;;;6.40;71.70;;;;;;5076408;28;20037;-56
2021/12/25 08:18:10;;;;;;;4.65;3.33;;;6.40;71.50;;;;;;5078649;28;20028;-57
2021/12/25 08:20:37;;;;;;;4.15;3.20;;;6.30;71.20;;;;;;5080906;28;20041;-55
2021/12/25 08:23:03;;;;;;;3.90;3.50;;;6.30;71.30;;;;;;5081987;28;20052;-57
2021/12/25 08:25:29;;;;;;;4.20;3.38;;;6.20;71.20;;;;;;5077614;28;20099;-56
2021/12/25 08:27:55;;;;;;;5.07;3.67;;;6.20;71.10;;;;;;5074973;28;20029;-56
2021/12/25 08:30:23;;;;;;;4.13;3.60;;;6.10;70.70;;;;;;5074624;28;20039;-56
2021/12/25 08:32:55;;;;;;;3.83;3.40;;;6.10;70.30;;;;;;5086401;28;20111;-55
2021/12/25 08:35:21;;;;;;;4.13;3.55;;;6.10;69.90;;;;;;5077749;28;20035;-57
2021/12/25 08:37:47;;;;;;;4.40;3.60;;;6.00;69.60;;;;;;5086031;28;20472;-57
2021/12/25 08:40:14;;;;;;;5.63;4.13;;;6.00;69.40;;;;;;5081296;28;20082;-55
2021/12/25 08:42:46;;;;;;;5.35;4.28;;;5.90;69.50;;;;;;5073086;28;20067;-55
2021/12/25 08:47:58;;;;;;;5.00;3.60;;;5.90;68.40;;;;;;5082804;28;20078;-57
2021/12/25 08:50:24;;;;;;;4.28;3.45;;;5.90;68.40;;;;;;5075491;28;20146;-58
2021/12/25 08:52:50;;;;;;;3.80;3.38;;;5.90;68.40;;;;;;5079251;28;20075;-54
2021/12/25 08:55:16;;;;;;;3.92;3.50;;;5.80;68.20;;;;;;5077968;28;20056;-55
2021/12/25 08:57:41;;;;;;;4.50;3.40;;;5.90;68.10;;;;;;5092184;28;20383;-54
2021/12/25 09:00:08;;;;;;;4.22;3.15;;;5.90;67.90;;;;;;5077848;28;20032;-57
2021/12/25 09:02:34;;;;;;;5.28;3.75;;;5.80;67.60;;;;;;5077895;28;20709;-57
2021/12/25 09:05:00;;;;;;;4.45;3.70;;;5.90;67.60;;;;;;5083089;28;20037;-55
2021/12/25 09:07:25;;;;;;;4.68;3.40;;;5.90;67.50;;;;;;5071999;28;20033;-57
2021/12/25 09:09:51;;;;;;;5.60;3.92;;;5.90;67.20;;;;;;5087629;28;20028;-57
2021/12/25 09:12:19;;;;;;;5.63;3.85;;;5.90;67.20;;;;;;5089737;28;20067;-57
2021/12/25 09:14:45;;;;;;;4.75;3.70;;;5.90;67.00;;;;;;5074585;28;20361;-55
2021/12/25 09:17:12;;;;;;;4.75;3.65;;;5.90;67.40;;;;;;5081159;28;20031;-57
2021/12/25 09:19:38;;;;;;;4.70;3.67;;;5.90;66.50;;;;;;5080963;28;20042;-56
2021/12/25 09:22:04;;;;;;;6.72;3.78;;;5.90;66.30;;;;;;5078196;28;20444;-54
2021/12/25 09:24:30;;;;;;;5.43;4.30;;;6.00;66.80;;;;;;5084946;28;20048;-56
2021/12/25 09:26:56;;;;;;;6.82;4.53;;;5.90;66.00;;;;;;5085585;28;20351;-55
2021/12/25 09:29:21;;;;;;;6.10;4.10;;;6.00;66.50;;;;;;5088124;28;20094;-57
2021/12/25 09:31:47;;;;;;;5.65;4.32;;;6.00;66.60;;;;;;5076794;28;20491;-53
2021/12/25 09:34:14;;;;;;;5.18;4.10;;;6.00;66.70;;;;;;5084791;28;20052;-57
2021/12/25 09:36:40;;;;;;;5.43;3.92;;;6.00;66.80;;;;;;5084541;28;20510;-56
2021/12/25 09:39:06;;;;;;;4.60;3.83;;;6.00;66.60;;;;;;5077010;28;20071;-57
2021/12/25 09:41:33;;;;;;;5.10;4.05;;;6.00;66.40;;;;;;5079943;28;20020;-54
2021/12/25 09:44:00;;;;;;;6.30;4.43;;;6.00;66.70;;;;;;5077494;28;20043;-57
2021/12/25 09:46:26;;;;;;;5.38;4.20;;;6.00;66.70;;;;;;5077676;28;20060;-56
2021/12/25 09:48:52;;;;;;;5.10;4.13;;;6.00;66.40;;;;;;5079760;28;20054;-57
2021/12/25 09:51:18;;;;;;;5.50;4.07;;;5.90;66.10;;;;;;5084106;28;20432;-56
2021/12/25 09:54:05;;;;;;;6.07;4.45;;;5.90;66.10;;;;;;5086768;28;20410;-57
2021/12/25 09:56:31;;;;;;;6.65;4.75;;;5.90;66.20;;;;;;5083078;28;20023;-57
2021/12/25 09:58:57;;;;;;;5.10;4.10;;;5.90;66.10;;;;;;5083087;28;20095;-54
2021/12/25 10:01:50;;;;;;;5.15;4.20;;;5.80;65.90;;;;;;5080164;28;20448;-55
2021/12/25 10:04:37;;;;;;;5.60;4.30;;;5.80;65.70;;;;;;5085238;28;20063;-57
2021/12/25 10:07:30;;;;;;;6.22;4.75;;;5.80;66.00;;;;;;5090941;28;20051;-57
2021/12/25 10:09:55;;;;;;;6.20;4.88;;;5.80;66.20;;;;;;5082389;28;20137;-56
2021/12/25 10:12:25;;;;;;;6.82;5.20;;;5.80;66.40;;;;;;5088882;28;20480;-58
2021/12/25 10:14:53;;;;;;;6.47;5.20;;;5.80;66.30;;;;;;5078554;28;20020;-57
2021/12/25 10:17:25;;;;;;;5.88;4.60;;;5.80;66.20;;;;;;5091597;28;20021;-56
2021/12/25 10:20:09;;;;;;;5.97;5.03;;;5.80;66.30;;;;;;5076340;28;20036;-57
2021/12/25 10:22:56;;;;;;;6.00;4.90;;;5.70;66.10;;;;;;5079789;28;20141;-55
2021/12/25 10:25:22;;;;;;;7.13;4.88;;;5.70;65.90;;;;;;5081391;28;20119;-57
2021/12/25 10:27:54;;;;;;;6.60;5.07;;;5.70;66.10;;;;;;5084315;28;20476;-55
2021/12/25 10:30:20;;;;;;;;;;;5.70;66.10;;;;;;5080542;28;20032;-57
2021/12/25 10:32:47;;;;;;;5.93;4.82;;;5.60;65.70;;;;;;5083712;28;19908;-55
2021/12/25 10:35:21;;;;;;;8.32;6.07;;;5.60;66.30;;;;;;5081303;28;20025;-55
2021/12/25 10:37:50;;;;;;;7.95;5.47;;;5.60;66.20;;;;;;5091243;28;20031;-53
2021/12/25 10:40:24;;;;;;;7.38;5.53;;;5.60;66.00;;;;;;5094756;28;20351;-53
2021/12/25 10:42:51;;;;;;;6.90;5.65;;;5.60;66.00;;;;;;5082965;28;20028;-56
2021/12/25 10:45:16;;;;;;;9.07;5.55;;;5.50;65.80;;;;;;5091285;28;20082;-57
2021/12/25 10:47:42;;;;;;;7.22;5.28;;;5.60;66.20;;;;;;5090885;28;20028;-57
2021/12/25 10:50:12;;;;;;;8.85;5.65;;;5.60;66.00;;;;;;5085555;28;20429;-55
2021/12/25 10:52:45;;;;;;;7.55;6.03;;;5.60;65.90;;;;;;5077137;28;20016;-57
2021/12/25 10:55:19;;;;;;;7.90;5.82;;;5.60;65.80;;;;;;5095167;28;20360;-57
2021/12/25 10:57:55;;;;;;;8.25;6.47;;;5.60;65.90;;;;;;5089730;28;20020;-59
2021/12/25 11:00:21;;;;;;;6.35;5.15;;;5.60;66.10;;;;;;5088658;28;20096;-54
2021/12/25 11:02:51;;;;;;;7.85;6.63;;;5.60;66.30;;;;;;5090361;28;20028;-57
2021/12/25 11:05:23;;;;;;;9.23;6.43;;;5.60;66.30;;;;;;5074834;28;20035;-56
2021/12/25 11:08:01;;;;;;;9.50;7.40;;;5.70;66.10;;;;;;5089457;28;20039;-54
2021/12/25 11:10:29;;;;;;;8.57;6.43;;;5.70;66.10;;;;;;5075143;28;20115;-56
2021/12/25 11:12:56;;;;;;;8.63;6.68;;;5.70;65.80;;;;;;5087831;28;20051;-56
2021/12/25 11:15:26;;;;;;;8.35;6.25;;;5.80;65.80;;;;;;5080216;28;20560;-52
2021/12/25 11:17:54;;;;;;;7.10;5.50;;;5.70;65.60;;;;;;5087586;28;20023;-56
2021/12/25 11:20:34;;;;;;;7.68;5.55;;;5.70;65.50;;;;;;5084891;28;20062;-57
2021/12/25 11:23:03;;;;;;;9.60;6.75;;;5.80;65.60;;;;;;5078512;28;20036;-58
2021/12/25 11:25:32;;;;;;;8.60;6.40;;;5.80;66.00;;;;;;5086346;28;20023;-57
2021/12/25 11:27:58;;;;;;;7.40;6.07;;;5.80;65.80;;;;;;5084531;28;20524;-55
2021/12/25 11:30:28;;;;;;;8.10;6.22;;;5.80;65.60;;;;;;5079447;28;20499;-55
2021/12/25 11:32:55;;;;;;;7.57;6.00;;;5.80;65.50;;;;;;5076427;28;20039;-54
2021/12/25 11:35:21;;;;;;;8.38;5.70;;;5.80;65.60;;;;;;5077341;28;20020;-57
2021/12/25 11:37:49;;;;;;;8.30;6.47;;;5.80;65.70;;;;;;5081861;28;20499;-57
2021/12/25 11:40:17;;;;;;;7.75;5.93;;;5.80;65.80;;;;;;5089354;28;20078;-57
2021/12/25 11:42:49;;;;;;;8.05;6.50;;;5.70;65.60;;;;;;5093751;28;20028;-57
2021/12/25 11:45:22;;;;;;;9.18;6.85;;;5.70;65.70;;;;;;5087214;28;20566;-57
2021/12/25 11:47:51;;;;;;;10.30;7.68;;;5.70;65.90;;;;;;5089522;28;20036;-57
2021/12/25 11:50:22;;;;;;;12.02;8.25;;;5.70;66.30;;;;;;5078580;28;20036;-57
2021/12/25 11:53:21;;;;;;;11.05;7.10;;;5.70;66.20;;;;;;5083374;28;20028;-57
2021/12/25 11:58:52;;;;;;;7.50;5.57;;;5.70;65.90;;;;;;5079626;28;20718;-56
2021/12/25 12:01:29;;;;;;;6.85;5.47;;;5.70;65.90;;;;;;5078559;28;20940;-56
2021/12/25 12:04:01;;;;;;;9.50;6.72;;;5.80;65.90;;;;;;5084061;28;20022;-56
2021/12/25 12:06:45;;;;;;;6.75;5.55;;;5.70;65.90;;;;;;5085404;28;20036;-54
2021/12/25 12:09:20;;;;;;;6.47;5.13;;;5.70;65.80;;;;;;5078771;28;20022;-57
2021/12/25 12:11:48;;;;;;;6.35;5.22;;;5.70;65.50;;;;;;5076808;28;20041;-57
2021/12/25 12:14:25;;;;;;;7.45;5.65;;;5.60;65.40;;;;;;5093051;28;20099;-55
2021/12/25 12:17:00;;;;;;;6.60;5.03;;;5.60;65.50;;;;;;5086045;28;20024;-53
2021/12/25 12:19:38;;;;;;;6.63;5.93;;;5.60;65.80;;;;;;5074992;28;20036;-57
2021/12/25 12:22:36;;;;;;;6.95;5.57;;;5.50;65.80;;;;;;5074925;28;20031;-55
2021/12/25 12:27:34;;;;;;;8.02;6.60;;;5.50;66.20;;;;;;5086394;28;20024;-56
2021/12/25 12:30:02;;;;;;;9.38;6.35;;;5.40;66.50;;;;;;5079511;28;20024;-56
2021/12/25 12:32:43;;;;;;;8.68;6.28;;;5.40;66.70;;;;;;5086961;28;20021;-54
2021/12/25 12:35:34;;;;;;;7.50;6.23;;;5.40;67.00;;;;;;5083926;28;20021;-56
2021/12/25 12:41:32;;;;;;;7.95;6.10;;;5.30;67.50;;;;;;5078187;28;20028;-56
2021/12/25 12:44:13;;;;;;;6.65;5.32;;;5.20;67.70;;;;;;5082362;28;20053;-57
2021/12/25 12:46:48;;;;;;;;;;;5.10;67.80;;;;;;5083408;28;20035;-57
2021/12/25 12:49:16;;;;;;;6.82;5.60;;;5.00;68.20;;;;;;5083673;28;19942;-53
2021/12/25 12:51:42;;;;;;;7.00;6.05;;;5.00;68.70;;;;;;5079199;28;20024;-57
2021/12/25 12:54:09;;;;;;;8.30;6.38;;;4.90;69.50;;;;;;5080402;28;20466;-56
2021/12/25 12:56:36;;;;;;;8.48;6.63;;;4.80;70.30;;;;;;5081644;28;20070;-55
2021/12/25 12:59:03;;;;;;;8.25;6.65;;;4.80;70.90;;;;;;5082482;28;20028;-57
2021/12/25 13:01:29;;;;;;;9.57;7.50;;;4.70;71.40;;;;;;5084493;28;20363;-57
2021/12/25 13:04:00;;;;;;;10.95;7.07;;;4.60;71.80;;;;;;5081767;28;20115;-56
2021/12/25 13:06:27;;;;;;;11.20;8.40;;;4.50;72.20;;;;;;5083959;28;20032;-55
2021/12/25 13:08:54;;;;;;;10.38;7.82;;;4.50;72.40;;;;;;5085244;28;20111;-55
2021/12/25 13:11:27;;;;;;;10.68;7.82;;;4.50;72.70;;;;;;5087684;28;20048;-57
2021/12/25 13:13:57;;;;;;;10.00;7.53;;;4.50;72.80;;;;;;5083173;28;20024;-55
2021/12/25 13:16:27;;;;;;;11.23;8.38;;;4.60;72.80;;;;;;5085532;28;20036;-54
2021/12/25 13:18:55;;;;;;;11.00;8.40;;;4.60;72.70;;;;;;5089477;28;20103;-56
2021/12/25 13:21:26;;;;;;;11.40;8.48;;;4.70;72.60;;;;;;5087556;28;20028;-55
2021/12/25 13:23:56;;;;;;;11.02;8.32;;;4.70;72.50;;;;;;5079877;28;20056;-56
2021/12/25 13:26:26;;;;;;;11.95;7.82;;;4.80;72.40;;;;;;5081801;28;20364;-55
2021/12/25 13:28:52;;;;;;;11.23;7.72;;;4.80;72.20;;;;;;5075376;28;20024;-55
2021/12/25 13:31:21;;;;;;;10.80;8.18;;;4.80;71.90;;;;;;5080207;28;20034;-54
2021/12/25 13:33:53;;;;;;;9.40;7.82;;;4.80;71.90;;;;;;5078614;28;20036;-56
2021/12/25 13:36:20;;;;;;;;;;;4.80;72.00;;;;;;5092581;28;20480;-56
2021/12/25 13:38:55;;;;;;;11.20;8.10;;;4.70;71.90;;;;;;5088777;28;20366;-57
2021/12/25 13:41:40;;;;;;;12.75;9.60;;;4.70;72.10;;;;;;5082645;28;20035;-56
2021/12/25 13:44:34;;;;;;;13.50;10.13;;;4.70;72.20;;;;;;5089309;28;20537;-56
2021/12/25 13:47:10;;;;;;;14.18;10.32;;;4.70;72.20;;;;;;5077995;28;20033;-53
2021/12/25 13:49:52;;;;;;;14.65;10.80;;;4.70;72.20;;;;;;5089148;28;20025;-54
2021/12/25 13:52:20;;;;;;;12.93;9.60;;;4.70;72.10;;;;;;5080848;28;20657;-56
2021/12/25 13:54:55;;;;;;;15.15;11.10;;;4.70;72.10;;;;;;5085873;28;20087;-54
2021/12/25 13:57:23;;;;;;;13.80;10.55;;;4.80;72.10;;;;;;5080727;28;20024;-54
2021/12/25 14:00:03;;;;;;;15.40;10.43;;;4.80;72.10;;;;;;5092140;28;20048;-54
2021/12/25 14:02:29;;;;;;;14.90;10.57;;;4.80;72.20;;;;;;5078651;28;20028;-56
2021/12/25 14:04:58;;;;;;;15.82;10.73;;;4.80;72.20;;;;;;5081517;28;20475;-56
2021/12/25 14:07:28;;;;;;;13.85;10.40;;;4.80;72.20;;;;;;5080067;28;20158;-54
2021/12/25 14:10:11;;;;;;;14.30;10.63;;;4.80;72.20;;;;;;5085720;28;20027;-57
2021/12/25 14:12:40;;;;;;;15.38;11.00;;;4.80;72.10;;;;;;5078770;28;20028;-57
2021/12/25 14:15:08;;;;;;;15.95;11.05;;;4.80;72.10;;;;;;5081512;28;20024;-56
2021/12/25 14:17:35;;;;;;;15.25;11.63;;;4.80;72.10;;;;;;5079919;28;20017;-56
2021/12/25 14:20:26;;;;;;;16.33;11.05;;;4.80;72.10;;;;;;5087109;28;20028;-54